Time;durP1;ratioP1;P1;durP2;ratioP2;P2;SDS_P1;SDS_P2;PMS_P1;PMS_P2;Temp;Humidity;BMP_temperature;BMP_pressure;BME280_temperature;BME280_humidity;BME280_pressure;Samples;Min_cycle;Max_cycle;Signal;HPM_P1;HPM_P2
2023/03/15 00:00:19;;;;;;;;;;;20.00;39.10;;;;;;3052855;19;4546;-22
2023/03/15 00:01:22;;;;;;;;;;;20.00;39.10;;;;;;3055313;19;5575;-22
2023/03/15 00:02:22;;;;;;;;;;;20.00;39.10;;;;;;3053493;19;4530;-22
2023/03/15 00:03:23;;;;;;;;;;;20.00;39.10;;;;;;3054362;19;4387;-22
2023/03/15 00:04:24;;;;;;;;;;;20.00;39.10;;;;;;3054433;19;4554;-22
2023/03/15 00:05:25;;;;;;;;;;;20.00;39.10;;;;;;3054763;19;5787;-22
2023/03/15 00:06:26;;;;;;;;;;;20.00;39.10;;;;;;3054182;19;4631;-22
2023/03/15 00:07:26;;;;;;;;;;;19.90;38.90;;;;;;3053508;19;4534;-22
2023/03/15 00:08:27;;;;;;;;;;;19.90;39.00;;;;;;3053694;19;4593;-22
2023/03/15 00:09:28;;;;;;;;;;;19.90;39.00;;;;;;3053849;19;4535;-23
2023/03/15 00:10:28;;;;;;;;;;;19.90;38.90;;;;;;3052820;19;4419;-22
2023/03/15 00:11:32;;;;;;;;;;;19.90;39.00;;;;;;3054379;19;4609;-27
2023/03/15 00:12:33;;;;;;;;;;;19.90;39.00;;;;;;3052629;19;4389;-23
2023/03/15 00:13:34;;;;;;;;;;;19.90;38.90;;;;;;3053944;19;4510;-23
2023/03/15 00:14:35;;;;;;;;;;;19.90;39.00;;;;;;3054434;19;4370;-23
2023/03/15 00:15:36;;;;;;;;;;;19.90;38.90;;;;;;3052779;19;4615;-22
2023/03/15 00:16:36;;;;;;;;;;;19.90;38.90;;;;;;3051954;19;4576;-23
2023/03/15 00:17:37;;;;;;;;;;;19.90;39.00;;;;;;3052019;19;4561;-23
2023/03/15 00:18:38;;;;;;;;;;;19.90;38.90;;;;;;3053503;19;4572;-22
2023/03/15 00:19:39;;;;;;;;;;;19.90;39.00;;;;;;3051436;19;4543;-23
2023/03/15 00:20:39;;;;;;;;;;;19.90;39.00;;;;;;3051364;19;5566;-23
2023/03/15 00:21:42;;;;;;;;;;;19.90;38.90;;;;;;3052227;19;4562;-22
2023/03/15 00:22:42;;;;;;;;;;;19.90;39.00;;;;;;3052843;19;4665;-23
2023/03/15 00:23:43;;;;;;;;;;;19.80;38.90;;;;;;3052583;19;4584;-23
2023/03/15 00:24:44;;;;;;;;;;;19.90;38.90;;;;;;3052713;19;4357;-23
2023/03/15 00:25:45;;;;;;;;;;;19.80;38.90;;;;;;3052540;19;4758;-23
2023/03/15 00:26:46;;;;;;;;;;;19.80;38.90;;;;;;3054062;19;4547;-22
2023/03/15 00:27:46;;;;;;;;;;;19.80;38.90;;;;;;3052071;19;4473;-22
2023/03/15 00:28:47;;;;;;;;;;;19.80;38.90;;;;;;3053015;19;4562;-23
2023/03/15 00:29:48;;;;;;;;;;;19.80;38.90;;;;;;3050080;19;4612;-23
2023/03/15 00:30:48;;;;;;;;;;;19.80;38.90;;;;;;3052182;19;4378;-22
2023/03/15 00:31:50;;;;;;;;;;;19.80;38.90;;;;;;3052379;19;5975;-23
2023/03/15 00:32:52;;;;;;;;;;;19.80;39.00;;;;;;3051881;19;6064;-22
2023/03/15 00:33:53;;;;;;;;;;;19.80;38.90;;;;;;3052422;19;5534;-22
2023/03/15 00:34:54;;;;;;;;;;;19.80;39.00;;;;;;3049902;19;4503;-22
2023/03/15 00:35:55;;;;;;;;;;;19.80;38.90;;;;;;3050982;19;4536;-25
2023/03/15 00:36:55;;;;;;;;;;;19.80;38.90;;;;;;3050875;19;4412;-23
2023/03/15 00:37:56;;;;;;;;;;;19.80;38.90;;;;;;3052692;19;5977;-23
2023/03/15 00:38:57;;;;;;;;;;;19.80;38.90;;;;;;3051536;19;4494;-23
2023/03/15 00:39:57;;;;;;;;;;;19.80;38.90;;;;;;3053390;19;4637;-22
2023/03/15 00:41:03;;;;;;;;;;;19.70;38.80;;;;;;3052756;19;5948;-23
2023/03/15 00:42:04;;;;;;;;;;;19.70;38.80;;;;;;3051431;19;4335;-22
2023/03/15 00:43:05;;;;;;;;;;;19.70;38.80;;;;;;3051681;19;4503;-23
2023/03/15 00:44:05;;;;;;;;;;;19.70;38.90;;;;;;3050458;19;11471;-24
2023/03/15 00:45:07;;;;;;;;;;;19.70;38.80;;;;;;3051394;19;4843;-20
2023/03/15 00:46:08;;;;;;;;;;;19.70;38.80;;;;;;3051858;19;4524;-20
2023/03/15 00:47:09;;;;;;;;;;;19.70;38.80;;;;;;3052719;19;4563;-23
2023/03/15 00:48:10;;;;;;;;;;;19.70;38.80;;;;;;3053632;19;1088;-23
2023/03/15 00:49:10;;;;;;;;;;;19.70;38.70;;;;;;3051639;19;4637;-23
2023/03/15 00:50:11;;;;;;;;;;;19.70;38.80;;;;;;3052190;19;4513;-22
2023/03/15 00:51:14;;;;;;;;;;;19.70;38.70;;;;;;3053224;19;4664;-23
2023/03/15 00:52:14;;;;;;;;;;;19.70;39.20;;;;;;3054106;19;6006;-23
2023/03/15 00:53:15;;;;;;;;;;;19.70;38.80;;;;;;3052599;19;4534;-23
2023/03/15 00:54:16;;;;;;;;;;;19.70;38.90;;;;;;3051905;19;4583;-23
2023/03/15 00:55:17;;;;;;;;;;;19.70;38.80;;;;;;3052066;19;4660;-23
2023/03/15 00:56:20;;;;;;;;;;;19.70;38.80;;;;;;3052468;19;4559;-23
2023/03/15 00:57:21;;;;;;;;;;;19.70;38.80;;;;;;3050584;19;4553;-22
2023/03/15 00:58:21;;;;;;;;;;;19.70;38.80;;;;;;3052190;19;4522;-29
2023/03/15 00:59:22;;;;;;;;;;;19.70;38.80;;;;;;3051932;19;4547;-22
2023/03/15 01:00:23;;;;;;;;;;;19.70;38.80;;;;;;3051963;19;5265;-21
2023/03/15 01:01:26;;;;;;;;;;;19.70;38.80;;;;;;3051285;19;4597;-22
2023/03/15 01:02:26;;;;;;;;;;;19.60;38.80;;;;;;3051314;19;4536;-24
2023/03/15 01:03:27;;;;;;;;;;;19.60;38.70;;;;;;3050940;19;4536;-23
2023/03/15 01:04:28;;;;;;;;;;;19.60;38.70;;;;;;3051678;19;4549;-23
2023/03/15 01:05:30;;;;;;;;;;;19.60;38.80;;;;;;3052460;19;4543;-23
2023/03/15 01:06:30;;;;;;;;;;;19.60;38.70;;;;;;3051768;19;4729;-23
2023/03/15 01:07:34;;;;;;;;;;;19.60;38.80;;;;;;3051524;19;4561;-23
2023/03/15 01:08:35;;;;;;;;;;;19.60;38.70;;;;;;3052079;19;4552;-23
2023/03/15 01:09:36;;;;;;;;;;;19.60;38.70;;;;;;3052261;19;5841;-23
2023/03/15 01:10:36;;;;;;;;;;;19.60;38.70;;;;;;3050313;19;4546;-20
2023/03/15 01:11:37;;;;;;;;;;;19.60;38.70;;;;;;3049948;19;4538;-23
2023/03/15 01:12:38;;;;;;;;;;;19.60;38.70;;;;;;3050301;19;4426;-22
2023/03/15 01:13:38;;;;;;;;;;;19.60;38.70;;;;;;3050517;19;5935;-22
2023/03/15 01:14:39;;;;;;;;;;;19.60;38.70;;;;;;3050046;19;4470;-22
2023/03/15 01:15:43;;;;;;;;;;;19.60;38.80;;;;;;3050475;19;4577;-23
2023/03/15 01:16:45;;;;;;;;;;;19.60;38.80;;;;;;3050400;19;4522;-23
2023/03/15 01:17:45;;;;;;;;;;;19.60;38.80;;;;;;3049630;19;4400;-23
2023/03/15 01:18:46;;;;;;;;;;;19.50;38.80;;;;;;3050815;19;4396;-23
2023/03/15 01:19:48;;;;;;;;;;;19.50;38.70;;;;;;3050878;19;4510;-23
2023/03/15 01:20:48;;;;;;;;;;;19.60;38.80;;;;;;3049864;19;4487;-23
2023/03/15 01:21:49;;;;;;;;;;;19.50;38.70;;;;;;3049937;19;5771;-22
2023/03/15 01:22:49;;;;;;;;;;;19.50;38.80;;;;;;3048496;19;4479;-23
2023/03/15 01:23:50;;;;;;;;;;;19.50;38.70;;;;;;3048693;19;4567;-22
2023/03/15 01:24:51;;;;;;;;;;;19.50;38.80;;;;;;3048916;19;4485;-22
2023/03/15 01:25:51;;;;;;;;;;;19.50;38.70;;;;;;3049782;19;4507;-23
2023/03/15 01:26:52;;;;;;;;;;;19.50;38.70;;;;;;3050168;19;5569;-24
2023/03/15 01:27:53;;;;;;;;;;;19.50;38.70;;;;;;3049552;19;4398;-23
2023/03/15 01:28:54;;;;;;;;;;;19.50;38.70;;;;;;3050533;19;4513;-24
2023/03/15 01:29:54;;;;;;;;;;;19.50;38.60;;;;;;3052291;19;4543;-22
2023/03/15 01:30:55;;;;;;;;;;;19.50;38.70;;;;;;3051193;19;4423;-30
2023/03/15 01:31:56;;;;;;;;;;;19.50;38.70;;;;;;3050593;19;4732;-22
2023/03/15 01:32:56;;;;;;;;;;;19.50;38.80;;;;;;3050622;19;4540;-24
2023/03/15 01:33:57;;;;;;;;;;;19.50;38.80;;;;;;3051855;19;4509;-23
2023/03/15 01:34:58;;;;;;;;;;;19.50;38.70;;;;;;3048947;19;4350;-23
2023/03/15 01:35:59;;;;;;;;;;;19.50;38.70;;;;;;3050975;19;4595;-23
2023/03/15 01:37:01;;;;;;;;;;;19.50;38.70;;;;;;3050060;19;4511;-22
2023/03/15 01:38:02;;;;;;;;;;;19.50;38.70;;;;;;3049897;19;4534;-23
2023/03/15 01:39:03;;;;;;;;;;;19.50;38.70;;;;;;3049489;19;4548;-23
2023/03/15 01:40:05;;;;;;;;;;;19.50;38.80;;;;;;3050325;19;4516;-24
2023/03/15 01:41:06;;;;;;;;;;;19.50;38.70;;;;;;3048338;19;5933;-23
2023/03/15 01:42:07;;;;;;;;;;;19.50;38.70;;;;;;3050722;19;960;-23
2023/03/15 01:43:07;;;;;;;;;;;19.50;38.70;;;;;;3047850;19;4506;-23
2023/03/15 01:44:15;;;;;;;;;;;19.50;38.80;;;;;;3051349;19;4691;-22
2023/03/15 01:45:50;;;;;;;;;;;19.40;38.80;;;;;;3049057;19;4555;-27
2023/03/15 01:46:51;;;;;;;;;;;19.40;38.70;;;;;;3049771;19;4469;-23
2023/03/15 01:47:52;;;;;;;;;;;19.40;38.70;;;;;;3049557;19;5937;-23
2023/03/15 01:49:01;;;;;;;;;;;19.40;38.60;;;;;;3049403;19;4524;-22
2023/03/15 01:50:07;;;;;;;;;;;19.40;38.80;;;;;;3050896;19;4499;-23
2023/03/15 01:51:13;;;;;;;;;;;19.40;38.70;;;;;;3048747;19;5979;-23
2023/03/15 01:52:21;;;;;;;;;;;19.40;38.80;;;;;;3048815;19;5957;-22
2023/03/15 01:53:22;;;;;;;;;;;19.40;38.80;;;;;;3049542;19;5828;-22
2023/03/15 01:54:46;;;;;;;;;;;19.40;38.80;;;;;;3048570;19;4543;-23
2023/03/15 01:55:47;;;;;;;;;;;19.40;38.70;;;;;;3049073;19;4940;-22
2023/03/15 01:56:51;;;;;;;;;;;19.40;38.70;;;;;;3050889;19;5798;-22
2023/03/15 01:57:55;;;;;;;;;;;19.40;38.70;;;;;;3049804;19;4548;-22
2023/03/15 01:58:55;;;;;;;;;;;19.40;38.70;;;;;;3050281;19;4608;-22
2023/03/15 02:00:11;;;;;;;;;;;19.30;38.60;;;;;;3050541;19;4366;-23
2023/03/15 02:01:13;;;;;;;;;;;19.40;38.70;;;;;;3048678;19;10139;-30
2023/03/15 02:02:13;;;;;;;;;;;19.40;38.70;;;;;;3049046;19;4774;-31
2023/03/15 02:03:20;;;;;;;;;;;19.40;38.70;;;;;;3049957;19;4430;-32
2023/03/15 02:04:24;;;;;;;;;;;19.40;38.70;;;;;;3049474;19;4508;-30
2023/03/15 02:05:26;;;;;;;;;;;19.30;38.70;;;;;;3049597;19;4666;-31
2023/03/15 02:06:27;;;;;;;;;;;19.40;38.70;;;;;;3050436;19;5860;-29
2023/03/15 02:07:27;;;;;;;;;;;19.30;38.70;;;;;;3050021;19;4566;-30
2023/03/15 02:08:33;;;;;;;;;;;19.30;38.70;;;;;;3048367;19;4594;-31
2023/03/15 02:09:41;;;;;;;;;;;19.30;38.60;;;;;;3048573;19;4510;-30
2023/03/15 02:10:44;;;;;;;;;;;19.30;38.70;;;;;;3048964;19;4532;-32
2023/03/15 02:11:45;;;;;;;;;;;19.30;38.70;;;;;;3049863;19;5121;-33
2023/03/15 02:12:47;;;;;;;;;;;19.30;38.70;;;;;;3049579;19;4523;-31
2023/03/15 02:13:48;;;;;;;;;;;19.30;39.30;;;;;;3048678;19;4543;-32
2023/03/15 02:14:49;;;;;;;;;;;19.30;38.70;;;;;;3049777;19;4579;-29
2023/03/15 02:15:52;;;;;;;;;;;19.30;38.70;;;;;;3049697;19;4561;-31
2023/03/15 02:16:52;;;;;;;;;;;19.30;38.70;;;;;;3049803;19;4424;-31
2023/03/15 02:17:53;;;;;;;;;;;19.30;38.60;;;;;;3050860;19;4533;-30
2023/03/15 02:18:54;;;;;;;;;;;19.30;38.70;;;;;;3049399;19;6414;-32
2023/03/15 02:20:00;;;;;;;;;;;19.30;38.70;;;;;;3048265;19;4513;-30
2023/03/15 02:21:05;;;;;;;;;;;19.30;38.60;;;;;;3048028;19;4487;-33
2023/03/15 02:22:41;;;;;;;;;;;19.30;38.60;;;;;;3049980;19;4338;-30
2023/03/15 02:23:43;;;;;;;;;;;19.30;38.60;;;;;;2844634;19;2004455;-31
2023/03/15 02:24:55;;;;;;;;;;;19.30;38.60;;;;;;3049100;19;4536;-31
2023/03/15 02:25:58;;;;;;;;;;;19.20;38.60;;;;;;3049230;19;4840;-30
2023/03/15 02:26:59;;;;;;;;;;;19.30;38.70;;;;;;3048486;19;5664;-31
2023/03/15 02:28:00;;;;;;;;;;;19.20;38.70;;;;;;3049140;19;4697;-31
2023/03/15 02:29:01;;;;;;;;;;;19.20;38.60;;;;;;3048378;19;4535;-30
2023/03/15 02:30:02;;;;;;;;;;;19.20;38.60;;;;;;3048180;19;4470;-30
2023/03/15 02:31:03;;;;;;;;;;;19.20;38.70;;;;;;3048641;19;6588;-31
2023/03/15 02:32:03;;;;;;;;;;;19.20;38.70;;;;;;3048426;19;4546;-30
2023/03/15 02:33:08;;;;;;;;;;;19.20;38.70;;;;;;3049733;19;4516;-31
2023/03/15 02:34:08;;;;;;;;;;;19.20;38.60;;;;;;3047687;19;5652;-34
2023/03/15 02:35:09;;;;;;;;;;;19.20;38.60;;;;;;3048625;19;4955;-30
2023/03/15 02:36:30;;;;;;;;;;;19.20;38.70;;;;;;3049868;19;4562;-32
2023/03/15 02:37:31;;;;;;;;;;;19.20;38.70;;;;;;3049000;19;4592;-31
2023/03/15 02:38:32;;;;;;;;;;;19.20;38.70;;;;;;3048124;19;4566;-31
2023/03/15 02:39:32;;;;;;;;;;;19.20;38.70;;;;;;3046546;19;4825;-30
2023/03/15 02:40:33;;;;;;;;;;;19.20;38.60;;;;;;3048636;19;5923;-31
2023/03/15 02:41:35;;;;;;;;;;;19.20;38.60;;;;;;3047226;19;4532;-31
2023/03/15 02:42:35;;;;;;;;;;;19.20;38.60;;;;;;3049087;19;4580;-30
2023/03/15 02:43:36;;;;;;;;;;;19.20;38.60;;;;;;3048713;19;4586;-30
2023/03/15 02:44:37;;;;;;;;;;;19.20;38.70;;;;;;3047478;19;4549;-30
2023/03/15 02:45:38;;;;;;;;;;;19.20;38.70;;;;;;3049365;19;4517;-30
2023/03/15 02:46:39;;;;;;;;;;;19.20;38.60;;;;;;3049086;19;4451;-31
2023/03/15 02:47:39;;;;;;;;;;;19.20;38.70;;;;;;3049543;19;5809;-30
